Alpestre, Brazil
Current Conditions -  °F | °C
As of 3:00 PM on Thursday 27 Nov 2014 (Local Time) from SBCH Reporting Station
Scattered Clouds Scattered Clouds  
Wind Chill: 84°   Ceiling: Unl
Heat Index: 85°   Visibility: 6mi
Dew Point: 63°   Wind: 14mph
Humidity: 48%   Direction: 210°SSW
Pressure: 29.91"   Gusts: NA
Location:  27.25°S, 53.03°W
Report Text: SBCH 271700Z 21012KT 9999 SCT040 FEW050TCU 29/17 Q1013
Loading
Personal Weather Stations






























Interactive Weather Map New forecast layout! Learn more

10-Day Weather Forecast

Advertisements
Track Severe Weather on mobile